sensor_id;sensor_type;location;lat;lon;timestamp;P1;durP1;ratioP1;P2;durP2;ratioP2
14754;SDS011;7469;50.906;6.952;2022-10-16T00:02:22;1.43;;;1.17;;
14754;SDS011;7469;50.906;6.952;2022-10-16T00:04:50;4.10;;;1.30;;
14754;SDS011;7469;50.906;6.952;2022-10-16T00:07:19;1.00;;;1.00;;
14754;SDS011;7469;50.906;6.952;2022-10-16T00:09:47;1.37;;;1.00;;
14754;SDS011;7469;50.906;6.952;2022-10-16T00:12:15;1.43;;;1.00;;
14754;SDS011;7469;50.906;6.952;2022-10-16T00:14:44;1.10;;;1.00;;
14754;SDS011;7469;50.906;6.952;2022-10-16T00:17:12;1.80;;;1.23;;
14754;SDS011;7469;50.906;6.952;2022-10-16T00:19:40;2.23;;;0.90;;
14754;SDS011;7469;50.906;6.952;2022-10-16T00:22:08;1.60;;;1.07;;
14754;SDS011;7469;50.906;6.952;2022-10-16T00:24:37;1.37;;;1.00;;
14754;SDS011;7469;50.906;6.952;2022-10-16T00:27:05;1.40;;;1.10;;
14754;SDS011;7469;50.906;6.952;2022-10-16T00:29:33;1.00;;;1.00;;
14754;SDS011;7469;50.906;6.952;2022-10-16T00:32:01;2.77;;;0.90;;
14754;SDS011;7469;50.906;6.952;2022-10-16T00:34:29;1.50;;;1.30;;
14754;SDS011;7469;50.906;6.952;2022-10-16T00:36:57;1.77;;;1.10;;
14754;SDS011;7469;50.906;6.952;2022-10-16T00:39:25;0.80;;;0.80;;
14754;SDS011;7469;50.906;6.952;2022-10-16T00:41:54;3.80;;;1.00;;
14754;SDS011;7469;50.906;6.952;2022-10-16T00:47:11;2.73;;;1.00;;
14754;SDS011;7469;50.906;6.952;2022-10-16T00:49:43;0.67;;;0.67;;
14754;SDS011;7469;50.906;6.952;2022-10-16T00:52:11;1.37;;;0.97;;
14754;SDS011;7469;50.906;6.952;2022-10-16T00:54:40;0.80;;;0.80;;
14754;SDS011;7469;50.906;6.952;2022-10-16T00:57:09;1.03;;;0.93;;
14754;SDS011;7469;50.906;6.952;2022-10-16T00:59:38;0.97;;;0.80;;
14754;SDS011;7469;50.906;6.952;2022-10-16T01:02:07;1.37;;;1.10;;
14754;SDS011;7469;50.906;6.952;2022-10-16T01:04:39;1.00;;;1.00;;
14754;SDS011;7469;50.906;6.952;2022-10-16T01:07:10;1.20;;;0.90;;
14754;SDS011;7469;50.906;6.952;2022-10-16T01:09:47;0.67;;;0.67;;
14754;SDS011;7469;50.906;6.952;2022-10-16T01:12:28;1.20;;;1.10;;
14754;SDS011;7469;50.906;6.952;2022-10-16T01:15:05;0.83;;;0.63;;
14754;SDS011;7469;50.906;6.952;2022-10-16T01:17:38;1.30;;;0.90;;
14754;SDS011;7469;50.906;6.952;2022-10-16T01:20:14;2.13;;;1.07;;
14754;SDS011;7469;50.906;6.952;2022-10-16T01:22:54;1.37;;;0.97;;
14754;SDS011;7469;50.906;6.952;2022-10-16T01:25:40;1.23;;;0.90;;
14754;SDS011;7469;50.906;6.952;2022-10-16T01:28:21;0.90;;;0.87;;
14754;SDS011;7469;50.906;6.952;2022-10-16T01:30:53;1.03;;;1.00;;
14754;SDS011;7469;50.906;6.952;2022-10-16T01:33:28;3.57;;;1.07;;
14754;SDS011;7469;50.906;6.952;2022-10-16T01:36:01;2.53;;;0.97;;
14754;SDS011;7469;50.906;6.952;2022-10-16T01:38:34;1.33;;;0.97;;
14754;SDS011;7469;50.906;6.952;2022-10-16T01:41:06;0.90;;;0.90;;
14754;SDS011;7469;50.906;6.952;2022-10-16T01:43:40;1.33;;;0.97;;
14754;SDS011;7469;50.906;6.952;2022-10-16T01:46:12;1.63;;;0.93;;
14754;SDS011;7469;50.906;6.952;2022-10-16T01:48:44;1.20;;;1.07;;
14754;SDS011;7469;50.906;6.952;2022-10-16T01:51:12;0.87;;;0.87;;
14754;SDS011;7469;50.906;6.952;2022-10-16T01:53:42;1.20;;;1.10;;
14754;SDS011;7469;50.906;6.952;2022-10-16T01:56:15;1.97;;;0.93;;
14754;SDS011;7469;50.906;6.952;2022-10-16T01:58:49;1.47;;;1.03;;
14754;SDS011;7469;50.906;6.952;2022-10-16T02:01:21;1.53;;;1.20;;
14754;SDS011;7469;50.906;6.952;2022-10-16T02:03:52;1.03;;;0.97;;
14754;SDS011;7469;50.906;6.952;2022-10-16T02:06:23;1.97;;;1.00;;
14754;SDS011;7469;50.906;6.952;2022-10-16T02:08:51;1.40;;;1.10;;
14754;SDS011;7469;50.906;6.952;2022-10-16T02:11:21;0.90;;;0.90;;
14754;SDS011;7469;50.906;6.952;2022-10-16T02:13:51;1.50;;;1.10;;
14754;SDS011;7469;50.906;6.952;2022-10-16T02:16:23;1.00;;;1.00;;
14754;SDS011;7469;50.906;6.952;2022-10-16T02:19:00;1.80;;;0.93;;
14754;SDS011;7469;50.906;6.952;2022-10-16T02:21:29;3.03;;;1.03;;
14754;SDS011;7469;50.906;6.952;2022-10-16T02:24:03;1.10;;;1.00;;
14754;SDS011;7469;50.906;6.952;2022-10-16T02:26:35;1.27;;;1.17;;
14754;SDS011;7469;50.906;6.952;2022-10-16T02:29:10;3.53;;;0.90;;
14754;SDS011;7469;50.906;6.952;2022-10-16T02:31:41;0.77;;;0.77;;
14754;SDS011;7469;50.906;6.952;2022-10-16T02:34:13;0.83;;;0.83;;
14754;SDS011;7469;50.906;6.952;2022-10-16T02:36:44;0.80;;;0.80;;
14754;SDS011;7469;50.906;6.952;2022-10-16T02:39:13;0.83;;;0.83;;
14754;SDS011;7469;50.906;6.952;2022-10-16T02:41:42;2.10;;;0.90;;
14754;SDS011;7469;50.906;6.952;2022-10-16T02:44:11;2.20;;;1.07;;
14754;SDS011;7469;50.906;6.952;2022-10-16T02:46:39;1.90;;;0.80;;
14754;SDS011;7469;50.906;6.952;2022-10-16T02:49:07;0.90;;;0.90;;
14754;SDS011;7469;50.906;6.952;2022-10-16T02:51:35;0.83;;;0.80;;
14754;SDS011;7469;50.906;6.952;2022-10-16T02:54:03;0.70;;;0.70;;
14754;SDS011;7469;50.906;6.952;2022-10-16T02:56:31;0.90;;;0.70;;
14754;SDS011;7469;50.906;6.952;2022-10-16T02:58:59;0.87;;;0.87;;
14754;SDS011;7469;50.906;6.952;2022-10-16T03:01:28;0.60;;;0.60;;
14754;SDS011;7469;50.906;6.952;2022-10-16T03:03:56;0.90;;;0.73;;
14754;SDS011;7469;50.906;6.952;2022-10-16T03:06:24;1.73;;;0.90;;
14754;SDS011;7469;50.906;6.952;2022-10-16T03:08:52;0.80;;;0.80;;
14754;SDS011;7469;50.906;6.952;2022-10-16T03:11:20;3.03;;;1.07;;
14754;SDS011;7469;50.906;6.952;2022-10-16T03:13:48;1.97;;;1.00;;
14754;SDS011;7469;50.906;6.952;2022-10-16T03:16:16;1.10;;;0.90;;
14754;SDS011;7469;50.906;6.952;2022-10-16T03:18:48;0.60;;;0.60;;
14754;SDS011;7469;50.906;6.952;2022-10-16T03:21:16;1.00;;;0.83;;
14754;SDS011;7469;50.906;6.952;2022-10-16T03:23:44;1.20;;;0.77;;
14754;SDS011;7469;50.906;6.952;2022-10-16T03:26:12;0.97;;;0.90;;
14754;SDS011;7469;50.906;6.952;2022-10-16T03:28:40;0.80;;;0.80;;
14754;SDS011;7469;50.906;6.952;2022-10-16T03:31:08;0.70;;;0.70;;
14754;SDS011;7469;50.906;6.952;2022-10-16T03:33:36;1.40;;;0.63;;
14754;SDS011;7469;50.906;6.952;2022-10-16T03:36:06;0.60;;;0.60;;
14754;SDS011;7469;50.906;6.952;2022-10-16T03:38:33;0.67;;;0.67;;
14754;SDS011;7469;50.906;6.952;2022-10-16T03:41:01;0.90;;;0.90;;
14754;SDS011;7469;50.906;6.952;2022-10-16T03:43:30;4.03;;;0.80;;
14754;SDS011;7469;50.906;6.952;2022-10-16T03:45:57;1.13;;;0.83;;
14754;SDS011;7469;50.906;6.952;2022-10-16T03:48:25;0.60;;;0.60;;
14754;SDS011;7469;50.906;6.952;2022-10-16T03:50:53;0.87;;;0.83;;
14754;SDS011;7469;50.906;6.952;2022-10-16T03:53:23;0.90;;;0.90;;
14754;SDS011;7469;50.906;6.952;2022-10-16T03:55:51;1.20;;;0.77;;
14754;SDS011;7469;50.906;6.952;2022-10-16T03:58:19;0.90;;;0.83;;
14754;SDS011;7469;50.906;6.952;2022-10-16T04:00:47;0.80;;;0.57;;
14754;SDS011;7469;50.906;6.952;2022-10-16T04:03:15;1.60;;;0.70;;
14754;SDS011;7469;50.906;6.952;2022-10-16T04:05:45;1.23;;;0.67;;
14754;SDS011;7469;50.906;6.952;2022-10-16T04:08:13;1.90;;;0.70;;
14754;SDS011;7469;50.906;6.952;2022-10-16T04:10:43;0.70;;;0.70;;
14754;SDS011;7469;50.906;6.952;2022-10-16T04:13:11;3.07;;;1.20;;
14754;SDS011;7469;50.906;6.952;2022-10-16T04:15:39;1.80;;;0.80;;
14754;SDS011;7469;50.906;6.952;2022-10-16T04:18:07;0.70;;;0.70;;
14754;SDS011;7469;50.906;6.952;2022-10-16T04:20:35;3.30;;;0.80;;
14754;SDS011;7469;50.906;6.952;2022-10-16T04:23:03;0.80;;;0.80;;
14754;SDS011;7469;50.906;6.952;2022-10-16T04:25:31;0.80;;;0.80;;
14754;SDS011;7469;50.906;6.952;2022-10-16T04:28:00;0.60;;;0.60;;
14754;SDS011;7469;50.906;6.952;2022-10-16T04:30:28;0.87;;;0.67;;
14754;SDS011;7469;50.906;6.952;2022-10-16T04:32:56;0.80;;;0.80;;
14754;SDS011;7469;50.906;6.952;2022-10-16T04:35:29;0.73;;;0.70;;
14754;SDS011;7469;50.906;6.952;2022-10-16T04:37:57;0.73;;;0.73;;
14754;SDS011;7469;50.906;6.952;2022-10-16T04:40:25;0.67;;;0.60;;
14754;SDS011;7469;50.906;6.952;2022-10-16T04:42:53;1.00;;;0.90;;
14754;SDS011;7469;50.906;6.952;2022-10-16T04:45:23;4.20;;;1.00;;
14754;SDS011;7469;50.906;6.952;2022-10-16T04:47:51;0.63;;;0.63;;
14754;SDS011;7469;50.906;6.952;2022-10-16T04:50:19;1.37;;;0.87;;
14754;SDS011;7469;50.906;6.952;2022-10-16T04:52:47;0.73;;;0.67;;
14754;SDS011;7469;50.906;6.952;2022-10-16T04:55:15;0.60;;;0.60;;
14754;SDS011;7469;50.906;6.952;2022-10-16T04:57:43;1.23;;;0.83;;
14754;SDS011;7469;50.906;6.952;2022-10-16T05:00:11;1.10;;;0.87;;
14754;SDS011;7469;50.906;6.952;2022-10-16T05:02:41;2.23;;;1.00;;
14754;SDS011;7469;50.906;6.952;2022-10-16T05:05:09;1.27;;;0.80;;
14754;SDS011;7469;50.906;6.952;2022-10-16T05:07:37;2.83;;;1.03;;
14754;SDS011;7469;50.906;6.952;2022-10-16T05:10:05;1.80;;;0.80;;
14754;SDS011;7469;50.906;6.952;2022-10-16T05:12:34;1.20;;;1.10;;
14754;SDS011;7469;50.906;6.952;2022-10-16T05:15:02;1.17;;;0.90;;
14754;SDS011;7469;50.906;6.952;2022-10-16T05:17:31;0.87;;;0.87;;
14754;SDS011;7469;50.906;6.952;2022-10-16T05:20:00;0.70;;;0.70;;
14754;SDS011;7469;50.906;6.952;2022-10-16T05:22:29;3.87;;;0.93;;
14754;SDS011;7469;50.906;6.952;2022-10-16T05:24:57;1.33;;;0.60;;
14754;SDS011;7469;50.906;6.952;2022-10-16T05:27:25;1.50;;;0.80;;
14754;SDS011;7469;50.906;6.952;2022-10-16T05:29:53;1.17;;;0.73;;
14754;SDS011;7469;50.906;6.952;2022-10-16T05:32:21;1.00;;;0.90;;
14754;SDS011;7469;50.906;6.952;2022-10-16T05:34:50;2.50;;;1.30;;
14754;SDS011;7469;50.906;6.952;2022-10-16T05:37:19;1.43;;;0.80;;
14754;SDS011;7469;50.906;6.952;2022-10-16T05:39:47;1.03;;;0.90;;
14754;SDS011;7469;50.906;6.952;2022-10-16T05:42:15;2.10;;;1.23;;
14754;SDS011;7469;50.906;6.952;2022-10-16T05:44:43;2.37;;;1.00;;
14754;SDS011;7469;50.906;6.952;2022-10-16T05:47:12;1.80;;;0.90;;
14754;SDS011;7469;50.906;6.952;2022-10-16T05:49:40;2.57;;;1.20;;
14754;SDS011;7469;50.906;6.952;2022-10-16T05:52:08;1.80;;;0.97;;
14754;SDS011;7469;50.906;6.952;2022-10-16T05:54:37;1.07;;;1.07;;
14754;SDS011;7469;50.906;6.952;2022-10-16T05:57:05;1.10;;;1.00;;
14754;SDS011;7469;50.906;6.952;2022-10-16T05:59:33;1.30;;;1.17;;
14754;SDS011;7469;50.906;6.952;2022-10-16T06:02:01;1.80;;;1.10;;
14754;SDS011;7469;50.906;6.952;2022-10-16T06:04:29;3.30;;;1.03;;
14754;SDS011;7469;50.906;6.952;2022-10-16T06:06:57;1.53;;;1.30;;
14754;SDS011;7469;50.906;6.952;2022-10-16T06:09:27;1.93;;;1.20;;
14754;SDS011;7469;50.906;6.952;2022-10-16T06:11:56;1.03;;;1.00;;
14754;SDS011;7469;50.906;6.952;2022-10-16T06:14:24;0.87;;;0.83;;
14754;SDS011;7469;50.906;6.952;2022-10-16T06:16:52;3.57;;;1.60;;
14754;SDS011;7469;50.906;6.952;2022-10-16T06:19:20;5.33;;;1.50;;
14754;SDS011;7469;50.906;6.952;2022-10-16T06:21:49;1.37;;;1.17;;
14754;SDS011;7469;50.906;6.952;2022-10-16T06:24:16;4.73;;;1.20;;
14754;SDS011;7469;50.906;6.952;2022-10-16T06:26:44;4.00;;;1.00;;
14754;SDS011;7469;50.906;6.952;2022-10-16T06:29:14;2.53;;;1.00;;
14754;SDS011;7469;50.906;6.952;2022-10-16T06:31:42;1.90;;;1.00;;
14754;SDS011;7469;50.906;6.952;2022-10-16T06:34:10;1.43;;;1.10;;
14754;SDS011;7469;50.906;6.952;2022-10-16T06:36:38;1.23;;;1.10;;
14754;SDS011;7469;50.906;6.952;2022-10-16T06:39:06;2.20;;;1.20;;
14754;SDS011;7469;50.906;6.952;2022-10-16T06:41:34;2.17;;;1.30;;
14754;SDS011;7469;50.906;6.952;2022-10-16T06:44:04;1.33;;;1.20;;
14754;SDS011;7469;50.906;6.952;2022-10-16T06:46:35;2.97;;;1.17;;
14754;SDS011;7469;50.906;6.952;2022-10-16T06:49:03;2.33;;;1.40;;
14754;SDS011;7469;50.906;6.952;2022-10-16T06:51:31;4.10;;;1.10;;
14754;SDS011;7469;50.906;6.952;2022-10-16T06:54:05;6.17;;;1.40;;
14754;SDS011;7469;50.906;6.952;2022-10-16T06:56:33;0.93;;;0.93;;
14754;SDS011;7469;50.906;6.952;2022-10-16T06:59:02;1.90;;;1.00;;
14754;SDS011;7469;50.906;6.952;2022-10-16T07:01:30;4.00;;;1.37;;
14754;SDS011;7469;50.906;6.952;2022-10-16T07:04:00;2.33;;;1.27;;
14754;SDS011;7469;50.906;6.952;2022-10-16T07:06:30;1.20;;;1.20;;
14754;SDS011;7469;50.906;6.952;2022-10-16T07:09:01;1.50;;;1.27;;
14754;SDS011;7469;50.906;6.952;2022-10-16T07:11:31;4.10;;;1.23;;
14754;SDS011;7469;50.906;6.952;2022-10-16T07:13:59;3.27;;;1.13;;
14754;SDS011;7469;50.906;6.952;2022-10-16T07:16:28;2.73;;;0.90;;
14754;SDS011;7469;50.906;6.952;2022-10-16T07:18:57;0.97;;;0.97;;
14754;SDS011;7469;50.906;6.952;2022-10-16T07:21:28;1.10;;;1.00;;
14754;SDS011;7469;50.906;6.952;2022-10-16T07:23:58;0.87;;;0.87;;
14754;SDS011;7469;50.906;6.952;2022-10-16T07:26:28;1.57;;;1.07;;
14754;SDS011;7469;50.906;6.952;2022-10-16T07:28:58;0.97;;;0.97;;
14754;SDS011;7469;50.906;6.952;2022-10-16T07:31:27;3.53;;;1.10;;
14754;SDS011;7469;50.906;6.952;2022-10-16T07:33:55;1.23;;;0.90;;
14754;SDS011;7469;50.906;6.952;2022-10-16T07:36:25;1.40;;;1.30;;
14754;SDS011;7469;50.906;6.952;2022-10-16T07:38:55;1.00;;;0.90;;
14754;SDS011;7469;50.906;6.952;2022-10-16T07:41:25;5.17;;;1.17;;
14754;SDS011;7469;50.906;6.952;2022-10-16T07:43:54;1.13;;;1.00;;
14754;SDS011;7469;50.906;6.952;2022-10-16T07:46:23;1.27;;;1.20;;
14754;SDS011;7469;50.906;6.952;2022-10-16T07:48:51;2.00;;;0.80;;
14754;SDS011;7469;50.906;6.952;2022-10-16T07:51:20;0.90;;;0.90;;
14754;SDS011;7469;50.906;6.952;2022-10-16T07:53:53;2.13;;;1.07;;
14754;SDS011;7469;50.906;6.952;2022-10-16T07:56:21;1.40;;;1.10;;
14754;SDS011;7469;50.906;6.952;2022-10-16T07:58:49;0.80;;;0.80;;
14754;SDS011;7469;50.906;6.952;2022-10-16T08:01:18;1.10;;;1.03;;
14754;SDS011;7469;50.906;6.952;2022-10-16T08:03:47;1.07;;;1.03;;
14754;SDS011;7469;50.906;6.952;2022-10-16T08:06:16;0.83;;;0.83;;
14754;SDS011;7469;50.906;6.952;2022-10-16T08:08:50;3.10;;;1.00;;
14754;SDS011;7469;50.906;6.952;2022-10-16T08:11:19;1.63;;;1.10;;
14754;SDS011;7469;50.906;6.952;2022-10-16T08:13:47;2.07;;;1.10;;
14754;SDS011;7469;50.906;6.952;2022-10-16T08:16:15;1.47;;;1.17;;
14754;SDS011;7469;50.906;6.952;2022-10-16T08:18:44;1.43;;;0.87;;
14754;SDS011;7469;50.906;6.952;2022-10-16T08:21:12;0.80;;;0.80;;
14754;SDS011;7469;50.906;6.952;2022-10-16T08:23:46;1.57;;;1.10;;
14754;SDS011;7469;50.906;6.952;2022-10-16T08:26:23;2.53;;;1.00;;
14754;SDS011;7469;50.906;6.952;2022-10-16T08:28:52;0.70;;;0.70;;
14754;SDS011;7469;50.906;6.952;2022-10-16T08:31:21;2.80;;;1.00;;
14754;SDS011;7469;50.906;6.952;2022-10-16T08:33:49;1.63;;;1.00;;
14754;SDS011;7469;50.906;6.952;2022-10-16T08:36:18;1.60;;;0.80;;
14754;SDS011;7469;50.906;6.952;2022-10-16T08:38:47;0.80;;;0.73;;
14754;SDS011;7469;50.906;6.952;2022-10-16T08:41:26;0.83;;;0.80;;
14754;SDS011;7469;50.906;6.952;2022-10-16T08:44:21;1.43;;;0.90;;
14754;SDS011;7469;50.906;6.952;2022-10-16T08:47:06;1.37;;;0.70;;
14754;SDS011;7469;50.906;6.952;2022-10-16T08:49:40;0.73;;;0.73;;
14754;SDS011;7469;50.906;6.952;2022-10-16T08:52:10;1.20;;;0.50;;
14754;SDS011;7469;50.906;6.952;2022-10-16T08:54:41;2.77;;;0.83;;
14754;SDS011;7469;50.906;6.952;2022-10-16T08:57:16;1.03;;;0.70;;
14754;SDS011;7469;50.906;6.952;2022-10-16T08:59:49;2.27;;;1.00;;
14754;SDS011;7469;50.906;6.952;2022-10-16T09:02:21;0.67;;;0.67;;
14754;SDS011;7469;50.906;6.952;2022-10-16T09:04:58;0.90;;;0.70;;
14754;SDS011;7469;50.906;6.952;2022-10-16T09:07:46;0.90;;;0.50;;
14754;SDS011;7469;50.906;6.952;2022-10-16T09:10:22;1.93;;;0.60;;
14754;SDS011;7469;50.906;6.952;2022-10-16T09:13:01;0.73;;;0.60;;
14754;SDS011;7469;50.906;6.952;2022-10-16T09:15:39;0.50;;;0.50;;
14754;SDS011;7469;50.906;6.952;2022-10-16T09:18:15;0.77;;;0.77;;
14754;SDS011;7469;50.906;6.952;2022-10-16T09:20:58;2.70;;;1.00;;
14754;SDS011;7469;50.906;6.952;2022-10-16T09:23:36;3.23;;;0.60;;
14754;SDS011;7469;50.906;6.952;2022-10-16T09:26:05;0.70;;;0.57;;
14754;SDS011;7469;50.906;6.952;2022-10-16T09:28:38;0.87;;;0.60;;
14754;SDS011;7469;50.906;6.952;2022-10-16T09:31:09;1.43;;;0.70;;
14754;SDS011;7469;50.906;6.952;2022-10-16T09:33:42;0.60;;;0.60;;
14754;SDS011;7469;50.906;6.952;2022-10-16T09:36:14;0.80;;;0.80;;
14754;SDS011;7469;50.906;6.952;2022-10-16T09:38:42;1.10;;;0.90;;
14754;SDS011;7469;50.906;6.952;2022-10-16T09:41:13;0.97;;;0.60;;
14754;SDS011;7469;50.906;6.952;2022-10-16T09:43:49;0.60;;;0.60;;
14754;SDS011;7469;50.906;6.952;2022-10-16T09:46:22;1.50;;;0.57;;
14754;SDS011;7469;50.906;6.952;2022-10-16T09:48:54;2.03;;;0.90;;
14754;SDS011;7469;50.906;6.952;2022-10-16T09:51:24;2.80;;;1.00;;
14754;SDS011;7469;50.906;6.952;2022-10-16T09:53:55;4.27;;;0.63;;
14754;SDS011;7469;50.906;6.952;2022-10-16T09:56:25;1.43;;;0.73;;
14754;SDS011;7469;50.906;6.952;2022-10-16T09:58:56;0.70;;;0.70;;
14754;SDS011;7469;50.906;6.952;2022-10-16T10:01:29;0.90;;;0.80;;
14754;SDS011;7469;50.906;6.952;2022-10-16T10:04:02;0.50;;;0.50;;
14754;SDS011;7469;50.906;6.952;2022-10-16T10:06:31;0.97;;;0.80;;
14754;SDS011;7469;50.906;6.952;2022-10-16T10:09:05;5.03;;;0.90;;
14754;SDS011;7469;50.906;6.952;2022-10-16T10:11:42;0.60;;;0.60;;
14754;SDS011;7469;50.906;6.952;2022-10-16T10:14:27;0.90;;;0.60;;
14754;SDS011;7469;50.906;6.952;2022-10-16T10:17:16;2.67;;;0.70;;
14754;SDS011;7469;50.906;6.952;2022-10-16T10:19:46;2.10;;;0.70;;
14754;SDS011;7469;50.906;6.952;2022-10-16T10:22:17;1.33;;;0.70;;
14754;SDS011;7469;50.906;6.952;2022-10-16T10:24:55;0.90;;;0.63;;
14754;SDS011;7469;50.906;6.952;2022-10-16T10:27:25;2.97;;;0.70;;
14754;SDS011;7469;50.906;6.952;2022-10-16T10:30:02;1.10;;;0.70;;
14754;SDS011;7469;50.906;6.952;2022-10-16T10:32:37;1.07;;;0.80;;
14754;SDS011;7469;50.906;6.952;2022-10-16T10:35:13;0.70;;;0.70;;
14754;SDS011;7469;50.906;6.952;2022-10-16T10:38:00;0.80;;;0.80;;
14754;SDS011;7469;50.906;6.952;2022-10-16T10:40:44;0.60;;;0.60;;
14754;SDS011;7469;50.906;6.952;2022-10-16T10:43:22;2.03;;;1.03;;
14754;SDS011;7469;50.906;6.952;2022-10-16T10:46:01;0.70;;;0.47;;
14754;SDS011;7469;50.906;6.952;2022-10-16T10:48:41;2.13;;;0.63;;
14754;SDS011;7469;50.906;6.952;2022-10-16T10:51:22;1.33;;;0.57;;
14754;SDS011;7469;50.906;6.952;2022-10-16T10:53:59;1.33;;;0.70;;
14754;SDS011;7469;50.906;6.952;2022-10-16T10:56:39;2.37;;;0.80;;
14754;SDS011;7469;50.906;6.952;2022-10-16T10:59:19;1.53;;;0.50;;
14754;SDS011;7469;50.906;6.952;2022-10-16T11:02:01;0.83;;;0.67;;
14754;SDS011;7469;50.906;6.952;2022-10-16T11:04:46;0.57;;;0.50;;
14754;SDS011;7469;50.906;6.952;2022-10-16T11:07:25;0.83;;;0.50;;
14754;SDS011;7469;50.906;6.952;2022-10-16T11:09:56;1.17;;;0.77;;
14754;SDS011;7469;50.906;6.952;2022-10-16T11:12:27;1.60;;;0.80;;
14754;SDS011;7469;50.906;6.952;2022-10-16T11:15:02;2.53;;;0.80;;
14754;SDS011;7469;50.906;6.952;2022-10-16T11:17:38;0.67;;;0.60;;
14754;SDS011;7469;50.906;6.952;2022-10-16T11:20:12;0.47;;;0.47;;
14754;SDS011;7469;50.906;6.952;2022-10-16T11:22:44;1.00;;;0.70;;
14754;SDS011;7469;50.906;6.952;2022-10-16T11:25:18;1.10;;;0.70;;
14754;SDS011;7469;50.906;6.952;2022-10-16T11:27:50;0.57;;;0.57;;
14754;SDS011;7469;50.906;6.952;2022-10-16T11:30:23;0.83;;;0.67;;
14754;SDS011;7469;50.906;6.952;2022-10-16T11:33:10;1.10;;;0.60;;
14754;SDS011;7469;50.906;6.952;2022-10-16T11:35:53;1.50;;;0.87;;
14754;SDS011;7469;50.906;6.952;2022-10-16T11:38:26;1.13;;;0.70;;
14754;SDS011;7469;50.906;6.952;2022-10-16T11:40:59;0.70;;;0.60;;
14754;SDS011;7469;50.906;6.952;2022-10-16T11:43:32;2.60;;;0.70;;
14754;SDS011;7469;50.906;6.952;2022-10-16T11:46:08;0.70;;;0.70;;
14754;SDS011;7469;50.906;6.952;2022-10-16T11:48:43;0.87;;;0.50;;
14754;SDS011;7469;50.906;6.952;2022-10-16T11:51:19;1.53;;;0.70;;
14754;SDS011;7469;50.906;6.952;2022-10-16T11:53:53;2.07;;;0.70;;
14754;SDS011;7469;50.906;6.952;2022-10-16T11:56:26;0.87;;;0.50;;
14754;SDS011;7469;50.906;6.952;2022-10-16T11:58:56;0.97;;;0.47;;
14754;SDS011;7469;50.906;6.952;2022-10-16T12:01:28;0.83;;;0.50;;
14754;SDS011;7469;50.906;6.952;2022-10-16T12:04:11;1.53;;;0.67;;
14754;SDS011;7469;50.906;6.952;2022-10-16T12:06:44;0.97;;;0.53;;
14754;SDS011;7469;50.906;6.952;2022-10-16T12:09:22;1.10;;;0.73;;
14754;SDS011;7469;50.906;6.952;2022-10-16T12:11:53;0.70;;;0.57;;
14754;SDS011;7469;50.906;6.952;2022-10-16T12:14:32;1.33;;;0.57;;
14754;SDS011;7469;50.906;6.952;2022-10-16T12:17:25;1.40;;;0.50;;
14754;SDS011;7469;50.906;6.952;2022-10-16T12:19:59;1.73;;;0.50;;
14754;SDS011;7469;50.906;6.952;2022-10-16T12:22:41;1.20;;;0.87;;
14754;SDS011;7469;50.906;6.952;2022-10-16T12:25:19;1.10;;;0.63;;
14754;SDS011;7469;50.906;6.952;2022-10-16T12:27:56;0.43;;;0.40;;
14754;SDS011;7469;50.906;6.952;2022-10-16T12:30:27;0.57;;;0.50;;
14754;SDS011;7469;50.906;6.952;2022-10-16T12:33:01;3.93;;;0.50;;
14754;SDS011;7469;50.906;6.952;2022-10-16T12:35:33;0.73;;;0.30;;
14754;SDS011;7469;50.906;6.952;2022-10-16T12:38:15;0.50;;;0.50;;
14754;SDS011;7469;50.906;6.952;2022-10-16T12:40:45;1.37;;;0.43;;
14754;SDS011;7469;50.906;6.952;2022-10-16T12:43:35;1.63;;;0.50;;
14754;SDS011;7469;50.906;6.952;2022-10-16T12:46:20;0.30;;;0.20;;
14754;SDS011;7469;50.906;6.952;2022-10-16T12:48:50;1.70;;;0.50;;
14754;SDS011;7469;50.906;6.952;2022-10-16T12:51:35;1.13;;;0.57;;
14754;SDS011;7469;50.906;6.952;2022-10-16T12:54:09;1.07;;;0.53;;
14754;SDS011;7469;50.906;6.952;2022-10-16T12:56:44;1.23;;;0.50;;
14754;SDS011;7469;50.906;6.952;2022-10-16T12:59:24;2.57;;;0.60;;
14754;SDS011;7469;50.906;6.952;2022-10-16T13:02:08;0.53;;;0.50;;
14754;SDS011;7469;50.906;6.952;2022-10-16T13:05:09;1.03;;;0.40;;
14754;SDS011;7469;50.906;6.952;2022-10-16T13:08:14;0.93;;;0.30;;
14754;SDS011;7469;50.906;6.952;2022-10-16T13:10:56;0.97;;;0.53;;
14754;SDS011;7469;50.906;6.952;2022-10-16T13:13:56;0.40;;;0.30;;
14754;SDS011;7469;50.906;6.952;2022-10-16T13:16:45;0.37;;;0.30;;
14754;SDS011;7469;50.906;6.952;2022-10-16T13:19:24;0.83;;;0.50;;
14754;SDS011;7469;50.906;6.952;2022-10-16T13:21:59;0.77;;;0.30;;
14754;SDS011;7469;50.906;6.952;2022-10-16T13:24:40;0.73;;;0.53;;
14754;SDS011;7469;50.906;6.952;2022-10-16T13:27:18;0.40;;;0.40;;
14754;SDS011;7469;50.906;6.952;2022-10-16T13:29:54;0.63;;;0.40;;
14754;SDS011;7469;50.906;6.952;2022-10-16T13:32:29;0.77;;;0.47;;
14754;SDS011;7469;50.906;6.952;2022-10-16T13:34:58;0.57;;;0.40;;
14754;SDS011;7469;50.906;6.952;2022-10-16T13:37:27;4.20;;;0.50;;
14754;SDS011;7469;50.906;6.952;2022-10-16T13:40:04;1.10;;;0.30;;
14754;SDS011;7469;50.906;6.952;2022-10-16T13:42:45;0.97;;;0.47;;
14754;SDS011;7469;50.906;6.952;2022-10-16T13:45:19;0.90;;;0.50;;
14754;SDS011;7469;50.906;6.952;2022-10-16T13:47:48;2.00;;;0.50;;
14754;SDS011;7469;50.906;6.952;2022-10-16T13:50:17;0.60;;;0.60;;
14754;SDS011;7469;50.906;6.952;2022-10-16T13:52:45;0.73;;;0.30;;
14754;SDS011;7469;50.906;6.952;2022-10-16T13:55:17;1.30;;;0.60;;
14754;SDS011;7469;50.906;6.952;2022-10-16T13:57:45;1.07;;;0.47;;
14754;SDS011;7469;50.906;6.952;2022-10-16T14:00:17;1.37;;;0.30;;
14754;SDS011;7469;50.906;6.952;2022-10-16T14:02:49;0.50;;;0.40;;
14754;SDS011;7469;50.906;6.952;2022-10-16T14:05:21;0.50;;;0.50;;
14754;SDS011;7469;50.906;6.952;2022-10-16T14:07:49;0.40;;;0.40;;
14754;SDS011;7469;50.906;6.952;2022-10-16T14:10:22;1.77;;;0.57;;
14754;SDS011;7469;50.906;6.952;2022-10-16T14:12:56;0.50;;;0.40;;
14754;SDS011;7469;50.906;6.952;2022-10-16T14:15:26;0.83;;;0.30;;
14754;SDS011;7469;50.906;6.952;2022-10-16T14:17:56;2.07;;;0.60;;
14754;SDS011;7469;50.906;6.952;2022-10-16T14:20:26;1.70;;;0.40;;
14754;SDS011;7469;50.906;6.952;2022-10-16T14:23:00;0.30;;;0.30;;
14754;SDS011;7469;50.906;6.952;2022-10-16T14:25:32;0.70;;;0.40;;
14754;SDS011;7469;50.906;6.952;2022-10-16T14:28:01;0.60;;;0.50;;
14754;SDS011;7469;50.906;6.952;2022-10-16T14:30:32;0.47;;;0.47;;
14754;SDS011;7469;50.906;6.952;2022-10-16T14:33:02;0.53;;;0.20;;
14754;SDS011;7469;50.906;6.952;2022-10-16T14:35:32;0.80;;;0.30;;
14754;SDS011;7469;50.906;6.952;2022-10-16T14:38:02;2.83;;;0.53;;
14754;SDS011;7469;50.906;6.952;2022-10-16T14:40:34;1.40;;;0.47;;
14754;SDS011;7469;50.906;6.952;2022-10-16T14:43:04;1.80;;;0.50;;
14754;SDS011;7469;50.906;6.952;2022-10-16T14:45:33;1.23;;;0.50;;
14754;SDS011;7469;50.906;6.952;2022-10-16T14:48:04;0.50;;;0.40;;
14754;SDS011;7469;50.906;6.952;2022-10-16T14:50:45;0.63;;;0.40;;
14754;SDS011;7469;50.906;6.952;2022-10-16T14:53:13;1.63;;;0.50;;
14754;SDS011;7469;50.906;6.952;2022-10-16T14:55:43;0.70;;;0.40;;
14754;SDS011;7469;50.906;6.952;2022-10-16T14:58:13;0.70;;;0.53;;
14754;SDS011;7469;50.906;6.952;2022-10-16T15:00:43;0.70;;;0.43;;
14754;SDS011;7469;50.906;6.952;2022-10-16T15:03:12;3.10;;;0.53;;
14754;SDS011;7469;50.906;6.952;2022-10-16T15:05:40;1.17;;;0.60;;
14754;SDS011;7469;50.906;6.952;2022-10-16T15:08:09;0.70;;;0.50;;
14754;SDS011;7469;50.906;6.952;2022-10-16T15:10:41;0.57;;;0.57;;
14754;SDS011;7469;50.906;6.952;2022-10-16T15:13:15;0.80;;;0.60;;
14754;SDS011;7469;50.906;6.952;2022-10-16T15:15:43;0.53;;;0.40;;
14754;SDS011;7469;50.906;6.952;2022-10-16T15:18:12;0.50;;;0.50;;
14754;SDS011;7469;50.906;6.952;2022-10-16T15:20:47;1.03;;;0.63;;
14754;SDS011;7469;50.906;6.952;2022-10-16T15:23:17;1.07;;;0.70;;
14754;SDS011;7469;50.906;6.952;2022-10-16T15:25:46;4.00;;;0.70;;
14754;SDS011;7469;50.906;6.952;2022-10-16T15:28:17;1.83;;;0.37;;
14754;SDS011;7469;50.906;6.952;2022-10-16T15:30:46;0.50;;;0.40;;
14754;SDS011;7469;50.906;6.952;2022-10-16T15:33:17;0.73;;;0.40;;